La Porte, Indiana
Current Conditions -  °F | °C
As of 3:15 PM on Tuesday 21 Oct 2014 (Local Time) from KPPO Reporting Station
Overcast Overcast  
Wind Chill: 51°   Ceiling: 2600
Heat Index: 51°   Visibility: 10mi
Dew Point: 43°   Wind: 13mph
Humidity: 74%   Direction: 360°N
Pressure: 30.16"   Gusts: 18mph
Location:  41.61°N, 86.72°W
Report Text: KPPO 212015Z AUTO 36011G16KT 10SM OVC026 11/06 A3016 RMK AO2 T01060061
Loading
Personal Weather Stations






























Interactive Weather Map New forecast layout! Learn more

10-Day Weather Forecast

Advertisements
Track Severe Weather on mobile